createdAt,value
2023-08-04T00:02:11.369Z,45.94
2023-08-04T00:04:42.304Z,46.07
2023-08-04T00:07:13.141Z,46.14
2023-08-04T00:09:43.974Z,46.05
2023-08-04T00:12:15.024Z,46.62
2023-08-04T00:14:47.821Z,46.56
2023-08-04T00:17:19.212Z,46.02
2023-08-04T00:19:50.262Z,46.12
2023-08-04T00:22:21.334Z,45.71
2023-08-04T00:24:52.384Z,45.80
2023-08-04T00:27:23.537Z,46.39
2023-08-04T00:29:54.564Z,46.48
2023-08-04T00:32:26.009Z,46.53
2023-08-04T00:34:57.100Z,46.34
2023-08-04T00:37:28.176Z,46.38
2023-08-04T00:39:59.181Z,46.11
2023-08-04T00:42:30.065Z,46.00
2023-08-04T00:45:01.228Z,46.26
2023-08-04T00:47:36.916Z,46.02
2023-08-04T00:50:12.116Z,45.79
2023-08-04T00:52:45.881Z,45.81
2023-08-04T00:55:19.021Z,45.76
2023-08-04T00:57:51.215Z,45.69
2023-08-04T01:00:23.009Z,45.92
2023-08-04T01:02:54.239Z,45.99
2023-08-04T01:05:31.059Z,45.94
2023-08-04T01:08:11.948Z,45.93
2023-08-04T01:10:53.092Z,46.43
2023-08-04T01:13:26.745Z,47.05
2023-08-04T01:15:58.900Z,46.88
2023-08-04T01:18:29.926Z,47.14
2023-08-04T01:21:05.036Z,47.58
2023-08-04T01:23:36.247Z,47.41
2023-08-04T01:26:10.593Z,47.54
2023-08-04T01:28:42.517Z,48.00
2023-08-04T01:31:14.284Z,48.36
2023-08-04T01:33:47.100Z,48.10
2023-08-04T01:36:18.545Z,48.27
2023-08-04T01:38:49.521Z,48.74
2023-08-04T01:41:20.448Z,49.00
2023-08-04T01:43:51.413Z,48.62
2023-08-04T01:46:22.564Z,48.00
2023-08-04T01:48:53.562Z,47.73
2023-08-04T01:51:24.505Z,47.76
2023-08-04T01:53:55.630Z,47.60
2023-08-04T01:56:26.819Z,47.49
2023-08-04T01:58:57.716Z,47.39
2023-08-04T02:01:28.757Z,47.38
2023-08-04T02:04:00.235Z,47.44
2023-08-04T02:06:31.080Z,47.48
2023-08-04T02:09:02.090Z,47.43
2023-08-04T02:11:33.322Z,47.65
2023-08-04T02:14:04.227Z,47.34
2023-08-04T02:16:35.381Z,47.05
2023-08-04T02:19:07.666Z,47.04
2023-08-04T02:21:39.417Z,47.03
2023-08-04T02:24:10.661Z,47.08
2023-08-04T02:26:41.915Z,46.95
2023-08-04T02:29:12.896Z,46.97
2023-08-04T02:31:45.021Z,47.06
2023-08-04T02:34:16.694Z,47.08
2023-08-04T02:36:47.833Z,47.58
2023-08-04T02:39:18.868Z,47.48
2023-08-04T02:41:50.165Z,47.54
2023-08-04T02:44:21.474Z,47.55
2023-08-04T02:46:52.553Z,47.98
2023-08-04T02:49:23.921Z,48.23
2023-08-04T02:51:55.035Z,48.07
2023-08-04T02:54:26.446Z,47.85
2023-08-04T02:56:57.546Z,47.62
2023-08-04T02:59:28.930Z,47.45
2023-08-04T03:01:59.826Z,47.37
2023-08-04T03:04:30.760Z,47.14
2023-08-04T03:07:01.823Z,46.94
2023-08-04T03:09:33.175Z,46.57
2023-08-04T03:12:04.292Z,46.55
2023-08-04T03:14:35.233Z,46.52
2023-08-04T03:17:07.223Z,46.41
2023-08-04T03:19:38.322Z,46.44
2023-08-04T03:22:09.769Z,46.80
2023-08-04T03:24:40.756Z,47.12
2023-08-04T03:27:11.869Z,47.48
2023-08-04T03:29:42.685Z,47.80
2023-08-04T03:32:13.993Z,48.22
2023-08-04T03:34:45.011Z,48.68
2023-08-04T03:37:16.268Z,48.83
2023-08-04T03:39:47.220Z,49.03
2023-08-04T03:42:18.294Z,49.24
2023-08-04T03:44:49.385Z,49.38
2023-08-04T03:47:20.399Z,49.44
2023-08-04T03:49:51.432Z,49.59
2023-08-04T03:52:22.588Z,49.72
2023-08-04T03:54:53.850Z,49.80
2023-08-04T03:57:24.911Z,49.86
2023-08-04T03:59:56.954Z,49.85
2023-08-04T04:02:28.305Z,49.94
2023-08-04T04:04:59.471Z,50.04
2023-08-04T04:07:30.725Z,50.08
2023-08-04T04:10:01.692Z,50.15
2023-08-04T04:12:33.183Z,50.08
2023-08-04T04:15:05.377Z,50.19
2023-08-04T04:17:36.566Z,50.13
2023-08-04T04:20:09.540Z,50.18
2023-08-04T04:22:40.587Z,50.28
2023-08-04T04:25:12.269Z,50.35
2023-08-04T04:27:43.339Z,50.39
2023-08-04T04:30:15.100Z,50.22
2023-08-04T04:32:45.919Z,50.04
2023-08-04T04:35:17.552Z,49.89
2023-08-04T04:37:48.830Z,49.84
2023-08-04T04:40:19.972Z,49.68
2023-08-04T04:42:51.099Z,49.55
2023-08-04T04:45:22.321Z,49.65
2023-08-04T04:47:53.504Z,49.55
2023-08-04T04:50:24.609Z,49.59
2023-08-04T04:52:55.570Z,49.71
2023-08-04T04:55:26.646Z,49.61
2023-08-04T04:57:57.604Z,48.64
2023-08-04T05:00:28.594Z,48.63
2023-08-04T05:02:59.737Z,48.61
2023-08-04T05:05:32.488Z,48.77
2023-08-04T05:08:04.012Z,48.75
2023-08-04T05:10:35.723Z,48.74
2023-08-04T05:13:06.793Z,48.68
2023-08-04T05:15:38.157Z,48.86
2023-08-04T05:18:09.122Z,48.95
2023-08-04T05:20:40.546Z,48.89
2023-08-04T05:23:12.626Z,48.64
2023-08-04T05:25:44.252Z,48.02
2023-08-04T05:28:25.759Z,48.01
2023-08-04T05:30:59.873Z,47.91
2023-08-04T05:33:32.512Z,47.79
2023-08-04T05:36:04.319Z,47.99
2023-08-04T05:38:35.924Z,48.16
2023-08-04T05:41:07.324Z,48.29
2023-08-04T05:43:38.231Z,48.11
2023-08-04T05:46:13.815Z,48.15
2023-08-04T05:48:45.464Z,48.24
2023-08-04T05:51:18.532Z,48.17
2023-08-04T05:53:49.837Z,47.97
2023-08-04T05:56:21.088Z,47.91
2023-08-04T05:58:52.268Z,47.87
2023-08-04T06:01:23.415Z,47.64
2023-08-04T06:03:54.517Z,47.73
2023-08-04T06:06:25.862Z,47.43
2023-08-04T06:08:57.239Z,47.58
2023-08-04T06:11:28.386Z,47.36
2023-08-04T06:13:59.757Z,47.29
2023-08-04T06:16:30.972Z,47.13
2023-08-04T06:19:02.216Z,47.03
2023-08-04T06:21:37.127Z,46.83
2023-08-04T06:24:08.582Z,46.73
2023-08-04T06:26:39.876Z,46.86
2023-08-04T06:29:10.986Z,46.96
2023-08-04T06:31:42.241Z,46.99
2023-08-04T06:34:13.893Z,46.89
2023-08-04T06:36:48.444Z,46.85
2023-08-04T06:39:20.250Z,46.80
2023-08-04T06:41:51.518Z,46.96
2023-08-04T06:44:23.097Z,46.94
2023-08-04T06:46:53.993Z,47.25
2023-08-04T06:49:25.314Z,47.19
2023-08-04T06:51:56.430Z,47.23
2023-08-04T06:54:27.502Z,47.52
2023-08-04T06:56:58.438Z,47.63
2023-08-04T06:59:30.039Z,47.55
2023-08-04T07:02:01.180Z,47.72
2023-08-04T07:04:32.322Z,47.72
2023-08-04T07:07:03.556Z,47.84
2023-08-04T07:09:34.799Z,47.97
2023-08-04T07:12:07.576Z,48.13
2023-08-04T07:14:38.830Z,48.20
2023-08-04T07:17:09.840Z,48.38
2023-08-04T07:19:40.912Z,48.48
2023-08-04T07:22:12.172Z,48.63
2023-08-04T07:24:44.176Z,48.66
2023-08-04T07:27:15.207Z,48.72
2023-08-04T07:29:46.312Z,48.72
2023-08-04T07:32:17.501Z,48.72
2023-08-04T07:34:48.909Z,48.93
2023-08-04T07:37:20.161Z,49.01
2023-08-04T07:39:51.068Z,49.05
2023-08-04T07:42:22.330Z,48.88
2023-08-04T07:44:53.805Z,49.21
2023-08-04T07:47:24.969Z,49.26
2023-08-04T07:49:56.004Z,49.37
2023-08-04T07:52:26.884Z,49.49
2023-08-04T07:54:58.096Z,49.51
2023-08-04T07:57:29.484Z,49.43
2023-08-04T08:00:00.801Z,49.21
2023-08-04T08:02:32.105Z,49.31
2023-08-04T08:05:03.436Z,49.36
2023-08-04T08:07:44.786Z,49.55
2023-08-04T08:10:17.891Z,49.54
2023-08-04T08:12:49.664Z,49.37
2023-08-04T08:15:21.258Z,49.42
2023-08-04T08:17:52.310Z,49.13
2023-08-04T08:20:23.614Z,49.15
2023-08-04T08:22:54.683Z,49.25
2023-08-04T08:25:26.794Z,49.26
2023-08-04T08:27:57.788Z,49.34
2023-08-04T08:30:29.690Z,49.26
2023-08-04T08:33:00.968Z,49.18
2023-08-04T08:35:32.229Z,49.29
2023-08-04T08:38:03.756Z,49.38
2023-08-04T08:40:35.315Z,49.49
2023-08-04T08:43:06.930Z,49.64
2023-08-04T08:45:39.755Z,49.85
2023-08-04T08:48:13.010Z,49.62
2023-08-04T08:50:48.900Z,49.56
2023-08-04T08:53:26.034Z,49.30
2023-08-04T08:55:57.257Z,49.29
2023-08-04T08:58:30.787Z,49.28
2023-08-04T09:01:04.216Z,49.36
2023-08-04T09:03:38.276Z,49.36
2023-08-04T09:06:09.620Z,49.23
2023-08-04T09:08:41.006Z,49.00
2023-08-04T09:11:13.021Z,48.82
2023-08-04T09:13:46.917Z,48.80
2023-08-04T09:16:19.886Z,48.84
2023-08-04T09:18:51.050Z,48.80
2023-08-04T09:21:23.268Z,48.79
2023-08-04T09:23:54.556Z,48.74
2023-08-04T09:26:25.952Z,48.65
2023-08-04T09:29:08.794Z,48.63
2023-08-04T09:31:41.120Z,48.75
2023-08-04T09:34:13.076Z,48.72
2023-08-04T09:36:46.670Z,48.80
2023-08-04T09:39:19.505Z,48.47
2023-08-04T09:41:51.464Z,48.66
2023-08-04T09:44:22.746Z,48.55
2023-08-04T09:46:55.383Z,48.47
2023-08-04T09:49:26.915Z,48.49
2023-08-04T09:52:00.390Z,48.50
2023-08-04T09:54:31.903Z,48.38
2023-08-04T09:57:03.271Z,48.32
2023-08-04T09:59:34.882Z,48.25
2023-08-04T10:02:07.161Z,48.17
2023-08-04T10:04:38.988Z,48.22
2023-08-04T10:07:11.745Z,48.14
2023-08-04T10:09:43.435Z,48.40
2023-08-04T10:12:15.553Z,48.41
2023-08-04T10:14:46.925Z,48.36
2023-08-04T10:17:20.884Z,48.39
2023-08-04T10:20:02.242Z,48.17
2023-08-04T10:22:33.874Z,47.84
2023-08-04T10:25:17.081Z,47.56
2023-08-04T10:27:52.487Z,46.95
2023-08-04T10:30:35.713Z,46.76
2023-08-04T10:33:22.616Z,46.51
2023-08-04T10:36:09.390Z,46.35
2023-08-04T10:38:52.004Z,46.10
2023-08-04T10:41:23.138Z,46.08
2023-08-04T10:44:03.648Z,46.10
2023-08-04T10:46:36.072Z,46.26
2023-08-04T10:49:07.709Z,46.28
2023-08-04T10:51:38.956Z,46.52
2023-08-04T10:54:10.516Z,46.47
2023-08-04T10:56:41.884Z,46.47
2023-08-04T10:59:13.126Z,46.13
2023-08-04T11:01:44.279Z,45.97
2023-08-04T11:04:15.716Z,45.95
2023-08-04T11:06:47.432Z,45.82
2023-08-04T11:09:18.569Z,45.71
2023-08-04T11:11:50.421Z,45.49
2023-08-04T11:14:23.293Z,45.65
2023-08-04T11:16:56.888Z,45.58
2023-08-04T11:19:28.003Z,45.46
2023-08-04T11:21:59.188Z,45.50
2023-08-04T11:24:30.448Z,45.39
2023-08-04T11:27:01.832Z,45.26
2023-08-04T11:29:33.979Z,44.78
2023-08-04T11:32:09.707Z,45.08
2023-08-04T11:34:42.547Z,44.74
2023-08-04T11:37:13.836Z,44.76
2023-08-04T11:39:45.225Z,44.75
2023-08-04T11:42:17.136Z,45.05
2023-08-04T11:44:49.128Z,45.02
2023-08-04T11:47:20.744Z,46.40
2023-08-04T11:49:53.324Z,46.96
2023-08-04T11:52:24.801Z,47.02
2023-08-04T11:54:58.453Z,47.13
2023-08-04T11:57:30.251Z,47.14
2023-08-04T12:00:02.263Z,47.10
2023-08-04T12:02:59.372Z,47.18
2023-08-04T12:05:35.057Z,47.12
2023-08-04T12:08:14.629Z,47.16
2023-08-04T12:10:46.428Z,46.95
2023-08-04T12:13:37.162Z,46.97
2023-08-04T12:16:09.020Z,46.94
2023-08-04T12:18:41.926Z,47.07
2023-08-04T12:21:16.406Z,47.17
2023-08-04T12:23:51.675Z,47.13
2023-08-04T12:26:23.084Z,47.20
2023-08-04T12:28:54.874Z,47.22
2023-08-04T12:31:26.758Z,47.20
2023-08-04T12:33:58.529Z,47.08
2023-08-04T12:36:30.090Z,46.98
2023-08-04T12:39:01.820Z,47.09
2023-08-04T12:41:34.256Z,47.09
2023-08-04T12:44:06.640Z,47.08
2023-08-04T12:46:38.305Z,47.18
2023-08-04T12:49:09.660Z,47.19
2023-08-04T12:51:40.948Z,47.36
2023-08-04T12:54:12.109Z,47.22
2023-08-04T12:56:43.051Z,47.17
2023-08-04T12:59:14.094Z,47.24
2023-08-04T13:01:45.339Z,47.17
2023-08-04T13:04:16.802Z,46.97
2023-08-04T13:06:49.061Z,46.91
2023-08-04T13:09:20.481Z,46.73
2023-08-04T13:11:51.711Z,46.68
2023-08-04T13:14:22.732Z,46.78
2023-08-04T13:16:53.863Z,46.79
2023-08-04T13:19:25.396Z,46.79
2023-08-04T13:21:56.595Z,46.67
2023-08-04T13:24:27.709Z,46.76
2023-08-04T13:26:58.965Z,46.51
2023-08-04T13:29:30.278Z,46.45
2023-08-04T13:32:01.425Z,46.54
2023-08-04T13:34:32.749Z,46.47
2023-08-04T13:37:03.996Z,46.42
2023-08-04T13:39:35.761Z,46.31
2023-08-04T13:42:08.094Z,46.23
2023-08-04T13:44:39.345Z,46.45
2023-08-04T13:47:10.905Z,46.33
2023-08-04T13:49:42.471Z,46.46
2023-08-04T13:52:13.608Z,46.36
2023-08-04T13:54:45.068Z,46.35
2023-08-04T13:57:21.935Z,46.49
2023-08-04T14:00:02.596Z,46.31
2023-08-04T14:02:35.573Z,46.23
2023-08-04T14:05:08.809Z,46.20
2023-08-04T14:07:42.600Z,46.20
2023-08-04T14:10:14.532Z,46.31
2023-08-04T14:12:45.566Z,46.25
2023-08-04T14:15:16.915Z,46.08
2023-08-04T14:17:48.339Z,46.27
2023-08-04T14:20:23.225Z,46.52
2023-08-04T14:22:54.677Z,46.39
2023-08-04T14:25:25.563Z,46.35
2023-08-04T14:27:56.588Z,46.25
2023-08-04T14:30:27.452Z,46.26
2023-08-04T14:32:58.530Z,46.16
2023-08-04T14:35:29.650Z,46.06
2023-08-04T14:38:01.607Z,46.19
2023-08-04T14:40:32.787Z,46.21
2023-08-04T14:43:04.135Z,46.08
2023-08-04T14:45:37.939Z,45.77
2023-08-04T14:48:09.444Z,45.73
2023-08-04T14:50:43.128Z,45.81
2023-08-04T14:53:14.647Z,45.68
2023-08-04T14:55:45.719Z,45.84
2023-08-04T14:58:16.707Z,45.80
2023-08-04T15:00:48.089Z,45.79
2023-08-04T15:03:18.952Z,45.62
2023-08-04T15:05:50.050Z,45.09
2023-08-04T15:08:21.221Z,44.39
2023-08-04T15:10:52.460Z,43.69
2023-08-04T15:13:23.655Z,42.66
2023-08-04T15:15:55.204Z,40.80
2023-08-04T15:18:26.472Z,37.80
2023-08-04T15:20:57.438Z,38.71
2023-08-04T15:23:28.863Z,39.00
2023-08-04T15:26:00.935Z,38.74
2023-08-04T15:28:32.265Z,37.14
2023-08-04T15:31:09.020Z,37.89
2023-08-04T15:33:40.915Z,37.22
2023-08-04T15:36:12.639Z,36.73
2023-08-04T15:38:43.996Z,36.96
2023-08-04T15:41:15.191Z,37.33
2023-08-04T15:43:46.226Z,37.05
2023-08-04T15:46:17.500Z,36.67
2023-08-04T15:48:48.885Z,36.30
2023-08-04T15:51:20.123Z,36.86
2023-08-04T15:53:52.529Z,36.18
2023-08-04T15:56:23.539Z,36.97
2023-08-04T15:58:54.601Z,36.58
2023-08-04T16:01:25.892Z,35.72
2023-08-04T16:03:57.199Z,36.09
2023-08-04T16:06:28.311Z,36.13
2023-08-04T16:08:59.272Z,36.49
2023-08-04T16:11:30.902Z,35.92
2023-08-04T16:14:02.266Z,35.43
2023-08-04T16:16:33.434Z,35.97
2023-08-04T16:19:04.714Z,35.77
2023-08-04T16:21:36.029Z,35.72
2023-08-04T16:24:09.022Z,35.68
2023-08-04T16:26:41.050Z,36.13
2023-08-04T16:29:13.434Z,36.11
2023-08-04T16:31:45.200Z,35.70
2023-08-04T16:34:16.833Z,35.55
2023-08-04T16:36:48.565Z,35.54
2023-08-04T16:39:20.386Z,35.44
2023-08-04T16:41:51.848Z,35.50
2023-08-04T16:44:23.145Z,35.32
2023-08-04T16:46:54.445Z,34.94
2023-08-04T16:49:25.812Z,34.89
2023-08-04T16:51:57.399Z,35.16
2023-08-04T16:54:28.531Z,34.95
2023-08-04T16:56:59.759Z,35.10
2023-08-04T16:59:31.145Z,33.47
2023-08-04T17:02:02.270Z,33.84
2023-08-04T17:04:33.732Z,34.06
2023-08-04T17:07:05.158Z,34.26
2023-08-04T17:09:36.684Z,34.03
2023-08-04T17:12:09.618Z,33.98
2023-08-04T17:14:40.774Z,33.92
2023-08-04T17:17:11.858Z,34.39
2023-08-04T17:19:43.383Z,34.49
2023-08-04T17:22:15.432Z,33.89
2023-08-04T17:24:46.454Z,33.49
2023-08-04T17:27:17.650Z,33.93
2023-08-04T17:29:48.838Z,34.12
2023-08-04T17:32:20.210Z,34.23
2023-08-04T17:34:51.318Z,33.73
2023-08-04T17:37:22.975Z,33.77
2023-08-04T17:39:54.179Z,33.79
2023-08-04T17:42:25.345Z,34.13
2023-08-04T17:44:56.534Z,33.94
2023-08-04T17:47:27.923Z,34.20
2023-08-04T17:49:59.259Z,34.39
2023-08-04T17:52:30.469Z,34.28
2023-08-04T17:55:02.285Z,34.26
2023-08-04T17:57:33.589Z,34.33
2023-08-04T18:00:05.358Z,34.27
2023-08-04T18:02:44.243Z,34.44
2023-08-04T18:05:15.958Z,34.59
2023-08-04T18:07:47.023Z,34.98
2023-08-04T18:10:18.216Z,35.27
2023-08-04T18:12:49.610Z,35.30
2023-08-04T18:15:20.774Z,35.28
2023-08-04T18:17:51.755Z,35.30
2023-08-04T18:20:23.300Z,35.36
2023-08-04T18:22:54.174Z,35.21
2023-08-04T18:25:25.399Z,35.40
2023-08-04T18:27:56.838Z,35.14
2023-08-04T18:30:28.126Z,35.32
2023-08-04T18:32:59.337Z,35.36
2023-08-04T18:35:30.343Z,35.17
2023-08-04T18:38:01.655Z,35.50
2023-08-04T18:40:32.774Z,35.34
2023-08-04T18:43:03.868Z,35.22
2023-08-04T18:45:35.646Z,34.71
2023-08-04T18:48:07.618Z,34.62
2023-08-04T18:50:38.745Z,34.85
2023-08-04T18:53:09.833Z,34.66
2023-08-04T18:55:42.100Z,34.61
2023-08-04T18:58:13.509Z,34.70
2023-08-04T19:00:44.953Z,34.62
2023-08-04T19:03:16.159Z,34.65
2023-08-04T19:05:47.367Z,34.62
2023-08-04T19:08:18.645Z,34.30
2023-08-04T19:10:49.607Z,34.21
2023-08-04T19:13:20.628Z,34.44
2023-08-04T19:15:51.751Z,34.50
2023-08-04T19:18:23.116Z,34.33
2023-08-04T19:20:54.599Z,34.23
2023-08-04T19:23:25.610Z,34.13
2023-08-04T19:25:57.568Z,34.06
2023-08-04T19:28:28.916Z,33.96
2023-08-04T19:31:05.742Z,34.00
2023-08-04T19:33:37.025Z,33.96
2023-08-04T19:36:08.863Z,33.88
2023-08-04T19:38:40.157Z,33.88
2023-08-04T19:41:11.778Z,34.00
2023-08-04T19:43:43.585Z,33.91
2023-08-04T19:46:15.050Z,33.96
2023-08-04T19:48:48.047Z,34.05
2023-08-04T19:51:19.983Z,34.00
2023-08-04T19:53:51.566Z,34.04
2023-08-04T19:56:22.971Z,34.16
2023-08-04T19:58:55.073Z,34.20
2023-08-04T20:01:26.672Z,34.25
2023-08-04T20:03:57.758Z,34.16
2023-08-04T20:06:29.723Z,34.26
2023-08-04T20:09:01.469Z,34.10
2023-08-04T20:11:32.797Z,34.30
2023-08-04T20:14:04.841Z,34.19
2023-08-04T20:16:36.331Z,34.17
2023-08-04T20:19:07.904Z,33.93
2023-08-04T20:21:39.100Z,34.05
2023-08-04T20:24:10.967Z,33.89
2023-08-04T20:26:43.465Z,33.81
2023-08-04T20:29:14.861Z,34.22
2023-08-04T20:31:46.193Z,34.20
2023-08-04T20:34:17.802Z,34.41
2023-08-04T20:36:49.654Z,34.24
2023-08-04T20:39:21.222Z,34.03
2023-08-04T20:41:52.305Z,34.18
2023-08-04T20:44:23.450Z,34.45
2023-08-04T20:46:54.594Z,34.64
2023-08-04T20:49:25.746Z,34.44
2023-08-04T20:51:57.134Z,34.38
2023-08-04T20:54:28.788Z,33.95
2023-08-04T20:56:59.979Z,34.05
2023-08-04T20:59:31.934Z,34.12
2023-08-04T21:02:03.264Z,33.56
2023-08-04T21:04:35.027Z,33.59
2023-08-04T21:07:09.008Z,33.27
2023-08-04T21:09:40.813Z,33.31
2023-08-04T21:12:12.647Z,33.62
2023-08-04T21:14:43.596Z,33.48
2023-08-04T21:17:14.871Z,33.39
2023-08-04T21:19:46.156Z,33.19
2023-08-04T21:22:17.306Z,33.42
2023-08-04T21:24:48.477Z,33.42
2023-08-04T21:27:19.582Z,33.62
2023-08-04T21:29:51.828Z,33.71
2023-08-04T21:32:22.939Z,33.32
2023-08-04T21:34:54.275Z,33.46
2023-08-04T21:37:25.452Z,33.35
2023-08-04T21:39:57.330Z,33.37
2023-08-04T21:42:28.498Z,33.35
2023-08-04T21:45:00.036Z,33.73
2023-08-04T21:47:31.355Z,33.63
2023-08-04T21:50:03.173Z,33.64
2023-08-04T21:52:34.640Z,33.58
2023-08-04T21:55:06.650Z,33.81
2023-08-04T21:57:37.985Z,33.48
2023-08-04T22:00:14.395Z,33.41
2023-08-04T22:02:45.990Z,33.52
2023-08-04T22:05:18.238Z,33.66
2023-08-04T22:07:49.745Z,33.73
2023-08-04T22:10:21.157Z,34.45
2023-08-04T22:12:56.067Z,35.50
2023-08-04T22:15:27.156Z,36.49
2023-08-04T22:17:58.463Z,36.74
2023-08-04T22:20:29.669Z,37.10
2023-08-04T22:23:00.873Z,36.88
2023-08-04T22:25:31.982Z,36.93
2023-08-04T22:28:03.370Z,36.86
2023-08-04T22:30:35.381Z,37.13
2023-08-04T22:33:07.242Z,37.30
2023-08-04T22:35:38.430Z,37.27
2023-08-04T22:38:10.716Z,37.85
2023-08-04T22:40:41.609Z,37.82
2023-08-04T22:43:12.864Z,37.76
2023-08-04T22:45:46.264Z,37.79
2023-08-04T22:48:17.290Z,37.70
2023-08-04T22:50:48.391Z,37.01
2023-08-04T22:53:19.330Z,37.12
2023-08-04T22:55:50.486Z,37.37
2023-08-04T22:58:21.760Z,37.62
2023-08-04T23:00:53.700Z,38.01
2023-08-04T23:03:24.756Z,38.10
2023-08-04T23:05:56.873Z,38.28
2023-08-04T23:08:28.467Z,38.35
2023-08-04T23:11:00.214Z,38.37
2023-08-04T23:13:31.432Z,38.33
2023-08-04T23:16:02.324Z,38.57
2023-08-04T23:18:33.635Z,38.73
2023-08-04T23:21:04.863Z,39.03
2023-08-04T23:23:36.461Z,39.14
2023-08-04T23:26:07.680Z,39.38
2023-08-04T23:28:39.360Z,39.48
2023-08-04T23:31:10.654Z,39.54
2023-08-04T23:33:41.841Z,39.61
2023-08-04T23:36:13.176Z,39.60
2023-08-04T23:38:44.118Z,39.54
2023-08-04T23:41:15.066Z,39.48
2023-08-04T23:43:46.067Z,39.49
2023-08-04T23:46:17.354Z,39.53
2023-08-04T23:48:48.412Z,39.62
2023-08-04T23:51:19.423Z,39.66
2023-08-04T23:53:50.499Z,39.83
2023-08-04T23:56:22.105Z,39.85
2023-08-04T23:58:53.600Z,39.92
